Latest Weather Observations for Maria Island

IDT60801

Issued at 6:41 am EDT Monday 6 February 2023 (issued every 10 minutes, with the page automatically refreshed every 10 minutes)

About weather observations | Map of weather stations | Latest weather observations for TAS | Other Formats
Station Details ID: 092124 Name: MARIA ISLAND (POINT LESUEUR) Lat: -42.66 Lon: 148.02 Height: 28.0 m
Data from the previous 72 hours. | See also: Recent months at Maria Island
Date/Time
EDT
Temp
°C
App
Temp
°C
Dew
Point
°C
Rel
Hum
%
Delta-T
°C
Wind Press
QNH
hPa
Press
MSL
hPa
Rain since
9am
mm
Dir  Spd
km/h
Gust
km/h
Spd
kts
Gust
kts
06/06:30am 14.6 12.3 9.0 69 2.9 NNW 11 15 6 8 1012.3 1012.2 0.0
06/06:00am 14.3 11.1 8.3 67 3.0 WNW 15 20 8 11 1012.5 1012.4 0.0
06/05:30am 14.2 11.7 8.4 68 2.9 W 11 17 6 9 1012.6 1012.5 0.0
06/05:00am 13.9 12.4 9.3 74 2.3 WNW 7 13 4 7 1012.5 1012.4 0.0
06/04:30am 14.3 11.2 8.9 70 2.7 W 15 20 8 11 1012.2 1012.1 0.0
06/04:00am 14.7 13.1 8.6 67 3.1 WNW 7 13 4 7 1012.1 1012.0 0.0
06/03:30am 14.7 14.2 9.5 71 2.7 NW 2 6 1 3 1012.4 1012.3 0.0
06/03:00am 14.5 13.3 9.5 72 2.6 W 6 9 3 5 1012.4 1012.3 0.0
06/02:30am 14.4 12.7 10.0 75 2.3 WSW 9 13 5 7 1012.5 1012.4 0.0
06/02:00am 14.2 12.1 11.2 82 1.6 WNW 13 15 7 8 1012.6 1012.5 0.0
06/01:30am 14.4 13.1 12.6 89 1.0 W 11 13 6 7 1012.8 1012.7 0.0
06/01:00am 14.5 13.6 12.7 89 1.0 WNW 9 11 5 6 1012.8 1012.7 0.0
06/12:30am 15.4 13.5 12.9 85 1.4 NNW 15 19 8 10 1012.8 1012.7 0.0
06/12:00am 16.1 13.9 13.4 84 1.5 N 17 20 9 11 1013.0 1012.9 0.0
 
Date/Time
EDT
Temp
°C
App
Temp
°C
Dew
Point
°C
Rel
Hum
%
Delta-T
°C
Wind Press
QNH
hPa
Press
MSL
hPa
Rain since
9am
mm
Dir  Spd
km/h
Gust
km/h
Spd
kts
Gust
kts
05/11:30pm 16.0 13.2 12.7 81 1.8 N 19 22 10 12 1012.8 1012.7 0.0
05/11:00pm 15.9 13.2 12.8 82 1.7 N 19 22 10 12 1013.0 1012.9 0.0
05/10:30pm 15.9 13.8 12.5 80 1.9 NNE 15 20 8 11 1013.3 1013.2 0.0
05/10:00pm 15.9 13.9 12.6 81 1.8 N 15 19 8 10 1013.2 1013.1 0.0
05/09:30pm 15.9 14.0 11.9 77 2.2 N 13 17 7 9 1012.9 1012.8 0.0
05/09:00pm 16.1 14.1 11.5 74 2.5 N 13 17 7 9 1012.6 1012.5 0.0
05/08:30pm 16.5 14.1 11.4 72 2.8 N 15 19 8 10 1012.4 1012.3 0.0
05/08:00pm 16.9 14.1 11.2 69 3.1 N 17 20 9 11 1012.2 1012.1 0.0
05/07:30pm 17.6 17.1 12.1 70 3.0 NW 6 13 3 7 1012.1 1012.0 0.0
05/07:00pm 17.4 14.9 12.3 72 2.8 ESE 17 22 9 12 1011.9 1011.8 0.0
05/06:30pm 17.6 15.4 12.1 70 3.0 ESE 15 20 8 11 1011.7 1011.6 0.0
05/06:00pm 17.9 15.8 12.4 70 3.1 E 15 19 8 10 1011.7 1011.6 0.0
05/05:30pm 18.2 15.7 12.2 68 3.3 E 17 20 9 11 1011.5 1011.4 0.0
05/05:00pm 18.1 15.0 12.1 68 3.3 E 20 24 11 13 1011.1 1011.0 0.0
05/04:30pm 18.6 15.1 12.1 66 3.6 E 22 28 12 15 1011.2 1011.1 0.0
05/04:00pm 18.9 14.7 13.5 71 3.1 E 28 33 15 18 1011.1 1011.0 0.0
05/03:30pm 18.8 14.6 12.5 67 3.5 E 26 33 14 18 1010.8 1010.7 0.0
05/03:00pm 20.4 17.2 11.1 55 5.1 ESE 19 22 10 12 1010.8 1010.7 0.0
05/02:30pm 21.2 20.0 10.4 50 5.9 SSE 7 13 4 7 1010.9 1010.8 0.0
05/02:00pm 20.0 15.9 11.5 58 4.7 S 24 26 13 14 1010.8 1010.7 0.0
05/01:30pm 19.5 15.7 11.3 59 4.5 S 22 28 12 15 1011.0 1010.9 0.0
05/01:00pm 19.1 15.1 11.7 62 4.1 S 24 28 13 15 1010.9 1010.8 0.0
05/12:30pm 19.1 15.5 11.7 62 4.1 S 22 28 12 15 1011.0 1010.9 0.0
05/12:00pm 18.7 15.1 12.0 65 3.7 S 22 28 12 15 1010.8 1010.7 0.0
05/11:30am 18.3 14.4 10.9 62 4.0 S 22 28 12 15 1010.7 1010.6 0.0
05/11:00am 18.1 13.5 11.0 63 3.8 SSW 26 32 14 17 1010.6 1010.5 0.0
05/10:30am 17.7 13.4 10.8 64 3.7 SSW 24 28 13 15 1010.4 1010.3 0.0
05/10:00am 17.0 10.9 9.7 62 3.8 SSW 32 43 17 23 1010.3 1010.2 0.0
05/09:30am 16.2 9.8 8.7 61 3.8 SW 32 39 17 21 1010.0 1009.9 0.0
05/09:00am 15.7 8.3 8.2 61 3.8 SW 37 44 20 24 1009.5 1009.4 11.0
05/08:30am 15.3 9.4 7.6 60 3.8 SW 28 43 15 23 1009.2 1009.1 11.0
05/08:00am 14.8 8.4 6.9 59 3.9 SW 30 44 16 24 1009.0 1008.9 11.0
05/07:30am 14.4 7.6 7.7 64 3.3 SW 33 43 18 23 1008.5 1008.4 11.0
05/07:00am 14.4 8.3 8.4 67 3.0 SW 30 39 16 21 1008.1 1008.0 11.0
05/06:30am 14.3 7.4 8.9 70 2.7 SW 35 52 19 28 1007.3 1007.2 11.0
05/06:00am 14.1 8.2 8.9 71 2.6 SW 30 43 16 23 1007.1 1007.0 11.0
05/05:30am 14.1 7.7 9.5 74 2.4 SW 33 41 18 22 1006.6 1006.5 11.0
05/05:00am 13.6 7.2 9.5 76 2.1 WSW 33 43 18 23 1006.1 1006.0 11.0
05/04:30am 13.9 7.9 10.1 78 2.0 SW 32 41 17 22 1005.5 1005.4 11.0
05/04:00am 13.3 5.6 10.3 82 1.6 SW 41 50 22 27 1005.1 1005.0 11.0
05/03:30am 14.2 6.1 10.2 77 2.1 SW 43 54 23 29 1004.9 1004.8 11.0
05/03:00am 14.1 3.8 9.5 74 2.4 SW 54 69 29 37 1004.6 1004.5 11.0
05/02:30am 14.4 3.9 10.4 77 2.1 SW 56 65 30 35 1004.0 1003.9 11.0
05/02:00am 13.9 3.3 10.7 81 1.7 SW 57 67 31 36 1003.7 1003.6 10.8
05/01:30am 14.3 5.1 10.9 80 1.8 SW 50 63 27 34 1003.4 1003.3 10.8
05/01:00am 14.8 4.6 10.0 73 2.5 SW 54 70 29 38 1002.7 1002.6 10.8
05/12:30am 14.9 5.9 10.3 74 2.4 SW 48 67 26 36 1002.2 1002.1 10.8
05/12:20am 14.9 7.1 11.3 79 1.9 SW 43 63 23 34 1002.3 1002.2 10.8
05/12:00am 14.6 6.8 11.0 79 1.9 SW 43 59 23 32 1002.0 1001.9 10.8
 
Date/Time
EDT
Temp
°C
App
Temp
°C
Dew
Point
°C
Rel
Hum
%
Delta-T
°C
Wind Press
QNH
hPa
Press
MSL
hPa
Rain since
9am
mm
Dir  Spd
km/h
Gust
km/h
Spd
kts
Gust
kts
04/11:46pm 14.7 7.6 10.9 78 2.0 SW 39 59 21 32 1001.8 1001.7 10.8
04/11:30pm 14.7 6.3 11.1 79 1.9 SW 46 61 25 33 1001.7 1001.6 10.8
04/11:00pm 14.7 7.2 10.7 77 2.1 SW 41 50 22 27 1001.5 1001.4 10.8
04/10:42pm 14.6 8.5 11.6 82 1.6 WSW 35 54 19 29 1001.5 1001.4 10.8
04/10:30pm 14.4 7.1 11.6 83 1.5 SW 41 54 22 29 1001.4 1001.3 10.8
04/10:00pm 14.1 7.8 11.1 82 1.6 SW 35 44 19 24 1001.3 1001.2 10.8
04/09:30pm 14.0 7.3 11.0 82 1.6 SW 37 50 20 27 1000.9 1000.8 10.8
04/09:06pm 13.9 6.0 11.4 85 1.3 SW 44 63 24 34 1000.5 1000.4 10.8
04/09:00pm 13.9 4.8 11.4 85 1.3 SW 50 63 27 34 1000.3 1000.2 10.8
04/08:30pm 13.7 5.5 11.8 88 1.0 SW 46 63 25 34 999.9 999.8 10.8
04/08:00pm 14.8 4.9 11.2 79 1.9 SW 54 69 29 37 999.2 999.1 10.6
04/07:30pm 14.8 4.5 11.2 79 1.9 SW 56 69 30 37 998.5 998.5 10.6
04/07:11pm 14.7 4.7 12.2 85 1.4 SW 56 74 30 40 998.2 998.2 10.6
04/07:00pm 14.2 4.1 12.2 88 1.1 SW 57 69 31 37 998.0 998.0 10.6
04/06:30pm 13.6 2.5 11.7 88 1.0 SW 61 76 33 41 997.3 997.3 10.6
04/06:04pm 14.8 5.9 11.9 83 1.6 SW 50 69 27 37 997.0 997.0 10.2
04/06:00pm 14.8 6.5 12.5 86 1.3 SW 48 57 26 31 997.1 997.1 10.2
04/05:30pm 15.8 6.2 12.2 79 2.0 SW 54 65 29 35 996.6 996.6 10.2
04/05:00pm 15.9 6.7 12.3 79 2.0 SW 52 70 28 38 996.2 996.2 10.2
04/04:30pm 16.5 7.9 12.8 79 2.1 SW 50 63 27 34 995.9 995.9 10.0
04/04:00pm 15.5 6.9 13.0 85 1.4 SW 50 63 27 34 995.6 995.6 10.0
04/03:31pm 14.3 7.5 13.0 92 0.7 SSW 41 59 22 32 995.4 995.4 9.8
04/03:30pm 14.4 8.0 13.1 92 0.7 SSW 39 57 21 31 995.4 995.4 9.8
04/03:00pm 14.3 7.5 13.2 93 0.6 SSW 41 48 22 26 995.4 995.4 8.4
04/02:30pm 15.2 9.2 13.2 88 1.1 SW 37 46 20 25 995.2 995.2 7.2
04/02:00pm 15.1 11.1 14.0 93 0.6 SW 28 35 15 19 995.2 995.2 7.2
04/01:30pm 15.1 10.4 13.1 88 1.1 SW 30 35 16 19 995.0 995.0 5.8
04/01:00pm 14.7 10.6 12.6 87 1.2 SW 26 35 14 19 995.0 995.0 5.6
04/12:30pm 14.2 13.0 12.8 91 0.8 NNW 11 15 6 8 995.0 995.0 5.6
04/12:00pm 13.7 11.4 11.9 89 1.0 N 15 19 8 10 994.9 994.9 5.4
04/11:30am 13.4 11.1 11.8 90 0.9 NNW 15 17 8 9 995.0 995.0 5.4
04/11:00am 12.8 10.3 11.2 90 0.9 NNW 15 19 8 10 995.0 995.0 4.8
04/10:30am 12.8 11.0 10.7 87 1.1 NNW 11 15 6 8 995.1 995.1 3.6
04/10:00am 12.8 10.3 11.0 89 1.0 N 15 19 8 10 995.0 995.0 3.0
04/09:30am 12.2 10.5 9.8 85 1.2 NW 9 13 5 7 995.1 995.1 2.0
04/09:00am 12.5 10.1 9.9 84 1.3 NNW 13 19 7 10 995.0 995.0 1.2
04/08:30am 12.4 8.7 9.4 82 1.5 NNW 19 22 10 12 994.7 994.7 1.0
04/08:00am 13.3 9.4 8.8 74 2.3 NNW 19 24 10 13 994.3 994.3 0.0
04/07:30am 13.7 9.7 8.1 69 2.8 NNW 19 22 10 12 993.9 993.9 0.0
04/07:00am 13.8 9.0 8.8 72 2.5 NNW 24 32 13 17 993.3 993.3 0.0
04/06:30am 13.6 6.7 8.7 72 2.5 N 35 39 19 21 992.4 992.4 0.0
04/06:00am 13.6 7.5 8.2 70 2.7 N 30 35 16 19 992.6 992.6 0.0
04/05:30am 13.4 6.8 8.5 72 2.5 N 33 41 18 22 992.2 992.2 0.0
04/05:00am 13.3 9.0 8.0 70 2.6 NNW 20 24 11 13 992.5 992.5 0.0
04/04:30am 13.4 8.1 8.3 71 2.5 NNW 26 32 14 17 992.5 992.5 0.0
04/04:00am 13.7 6.7 8.3 70 2.7 N 35 39 19 21 992.2 992.2 0.0
04/03:30am 13.7 7.1 7.9 68 2.9 N 32 37 17 20 992.4 992.4 0.0
04/03:00am 14.0 7.9 8.4 69 2.8 N 30 33 16 18 992.8 992.8 0.0
04/02:30am 14.0 8.3 8.4 69 2.8 NNW 28 33 15 18 992.9 992.9 0.0
04/02:00am 14.3 8.3 8.5 68 2.9 N 30 35 16 19 993.1 993.1 0.0
04/01:30am 14.5 8.8 8.5 67 3.0 NNW 28 33 15 18 992.9 992.9 0.0
04/01:00am 14.6 8.8 8.1 65 3.3 NNW 28 33 15 18 992.7 992.7 0.0
04/12:30am 14.7 8.1 7.7 63 3.5 NNW 32 39 17 21 992.4 992.4 0.0
04/12:00am 14.9 7.7 7.5 61 3.7 NW 35 43 19 23 992.3 992.3 0.0
 
Date/Time
EDT
Temp
°C
App
Temp
°C
Dew
Point
°C
Rel
Hum
%
Delta-T
°C
Wind Press
QNH
hPa
Press
MSL
hPa
Rain since
9am
mm
Dir  Spd
km/h
Gust
km/h
Spd
kts
Gust
kts
03/11:30pm 15.2 8.9 7.5 60 3.8 NW 30 35 16 19 992.4 992.4 0.0
03/11:00pm 15.7 8.6 8.2 61 3.8 NW 35 43 19 23 992.0 992.0 0.0
03/10:30pm 16.0 7.8 8.0 59 4.0 NW 41 46 22 25 991.7 991.7 0.0
03/10:00pm 16.4 8.7 7.3 55 4.6 NW 37 46 20 25 991.1 991.1 0.0
03/09:30pm 16.4 9.3 8.1 58 4.2 NW 35 43 19 23 990.7 990.7 0.0
03/09:00pm 16.6 9.3 7.3 54 4.7 NNW 35 44 19 24 989.9 989.9 0.0
03/08:30pm 16.9 8.9 7.5 54 4.7 NNW 39 44 21 24 989.3 989.3 0.0
03/08:00pm 17.5 11.7 9.4 59 4.3 NNW 30 35 16 19 989.1 989.1 0.0
03/07:30pm 17.4 10.6 9.3 59 4.2 N 35 41 19 22 988.6 988.6 0.0
03/07:00pm 17.7 11.4 9.8 60 4.2 N 33 39 18 21 988.5 988.5 0.0
03/06:30pm 17.1 9.4 8.5 57 4.4 NNE 39 44 21 24 987.8 987.8 0.0
03/06:00pm 16.8 10.3 8.8 59 4.2 NNE 33 43 18 23 987.8 987.8 0.0
03/05:30pm 16.9 10.0 8.8 59 4.2 NNE 35 43 19 23 987.7 987.7 0.0
03/05:00pm 17.9 12.5 9.5 58 4.5 N 28 35 15 19 987.6 987.6 0.0
03/04:30pm 17.6 11.3 9.0 57 4.5 N 32 37 17 20 987.4 987.4 0.0
03/04:00pm 17.9 13.0 9.8 59 4.3 N 26 33 14 18 987.6 987.6 0.0
03/03:30pm 18.4 13.8 9.7 57 4.6 N 24 30 13 16 987.6 987.6 0.0
03/03:00pm 18.7 16.1 9.2 54 5.0 N 13 19 7 10 987.6 987.6 0.0
03/02:30pm 17.8 15.7 8.1 53 5.0 N 9 13 5 7 987.4 987.4 0.0
03/02:00pm 17.2 15.2 6.4 49 5.4 ESE 6 7 3 4 987.6 987.6 0.0
03/01:30pm 16.5 14.6 6.6 52 4.9 S 6 7 3 4 987.6 987.6 0.0
03/01:00pm 17.0 15.2 7.1 52 5.0 S 6 9 3 5 987.5 987.5 0.0
03/12:30pm 16.8 14.3 8.2 57 4.4 S 11 17 6 9 987.5 987.5 0.0
03/12:00pm 16.5 14.8 7.4 55 4.6 S 6 9 3 5 987.5 987.5 0.0
03/11:30am 16.3 14.0 7.5 56 4.4 S 9 13 5 7 987.2 987.1 0.0
03/11:00am 15.9 12.6 8.2 60 3.9 S 15 19 8 10 987.0 986.9 0.0
03/10:30am 15.4 11.7 7.9 61 3.8 SSW 17 22 9 12 986.7 986.6 0.0
03/10:00am 15.1 11.4 7.9 62 3.6 SSW 17 20 9 11 986.5 986.4 0.0
03/09:30am 14.8 11.8 7.8 63 3.5 SW 13 22 7 12 986.1 986.0 0.0
03/09:00am 14.0 12.1 6.6 61 3.6 WSW 6 7 3 4 985.8 985.7 1.6
03/08:30am 13.5 11.1 6.8 64 3.2 WNW 9 11 5 6 985.6 985.5 1.6
03/08:00am 13.1 11.4 7.5 69 2.8 WNW 6 9 3 5 985.4 985.3 1.6
03/07:30am 12.1 9.3 7.0 71 2.4 WNW 11 13 6 7 985.3 985.2 1.6
03/07:00am 11.3 9.3 7.0 75 2.1 WNW 7 9 4 5 985.1 985.0 1.6

Other formats

Comma delimited format used in spreadsheet applications
http://www.bom.gov.au/fwo/IDT60801/IDT60801.95988.axf

JavaScript Object Notation format (JSON) in row-major order
http://www.bom.gov.au/fwo/IDT60801/IDT60801.95988.json

Data quality

Most of these data are generated automatically and are frequently updated. Quality checks on data are not normally performed. It is possible for incorrect values to appear. Refer to information at About Latest Weather Observations and please check the disclaimer before using these data.